Time;durP1;ratioP1;P1;durP2;ratioP2;P2;SDS_P1;SDS_P2;PMS_P1;PMS_P2;Temp;Humidity;BMP_temperature;BMP_pressure;BME280_temperature;BME280_humidity;BME280_pressure;Samples;Min_cycle;Max_cycle;Signal;HPM_P1;HPM_P2
2022/01/06 00:00:16;;;;;;;32.70;5.85;;;;;;;1.07;100.00;101293.28;1026848;28;20291;-78
2022/01/06 00:00:48;;;;;;;26.50;5.97;;;;;;;1.09;100.00;101291.31;1030184;28;20267;-80
2022/01/06 00:01:19;;;;;;;33.28;4.93;;;;;;;1.11;100.00;101286.78;1028622;28;20267;-79
2022/01/06 00:01:51;;;;;;;21.38;5.07;;;;;;;1.16;100.00;101289.81;1028555;29;21575;-81
2022/01/06 00:02:23;;;;;;;31.88;6.05;;;;;;;1.16;100.00;101290.63;1025105;29;20331;-80
2022/01/06 00:02:56;;;;;;;27.92;5.25;;;;;;;1.20;100.00;101293.78;1023307;29;20292;-80
2022/01/06 00:03:28;;;;;;;26.40;5.50;;;;;;;1.18;100.00;101293.94;1024477;29;20275;-77
2022/01/06 00:03:59;;;;;;;21.48;5.50;;;;;;;1.16;100.00;101290.63;1019601;29;20306;-76
2022/01/06 00:04:31;;;;;;;31.80;5.00;;;;;;;1.20;100.00;101280.66;1023404;29;20287;-75
2022/01/06 00:05:03;;;;;;;29.00;6.70;;;;;;;1.20;100.00;101285.91;1022059;29;20362;-76
2022/01/06 00:05:35;;;;;;;23.52;4.97;;;;;;;1.22;100.00;101294.47;1019460;29;20620;-76
2022/01/06 00:06:09;;;;;;;31.17;6.05;;;;;;;1.23;100.00;101291.69;1023293;29;20628;-76
2022/01/06 00:06:42;;;;;;;28.55;5.95;;;;;;;1.19;100.00;101289.50;1021761;28;20654;-76
2022/01/06 00:07:13;;;;;;;29.75;6.13;;;;;;;1.19;100.00;101300.00;1023731;28;20295;-76
2022/01/06 00:07:45;;;;;;;27.85;5.10;;;;;;;1.14;100.00;101292.56;1026945;28;20282;-77
2022/01/06 00:08:17;;;;;;;38.78;7.72;;;;;;;1.14;100.00;101287.31;1022298;28;20298;-77
2022/01/06 00:08:48;;;;;;;23.88;5.07;;;;;;;1.17;100.00;101291.47;1027442;28;20286;-76
2022/01/06 00:09:21;;;;;;;31.38;6.35;;;;;;;1.16;100.00;101284.56;1031067;28;20297;-77
2022/01/06 00:09:52;;;;;;;36.42;5.78;;;;;;;1.15;100.00;101288.97;1030987;28;20281;-76
2022/01/06 00:10:26;;;;;;;28.50;5.28;;;;;;;1.17;100.00;101284.41;1030565;28;20290;-77
2022/01/06 00:10:57;;;;;;;33.08;5.32;;;;;;;1.18;100.00;101288.69;1030953;28;20278;-76
2022/01/06 00:11:29;;;;;;;31.75;6.18;;;;;;;1.16;100.00;101295.06;1026782;28;20845;-76
2022/01/06 00:12:00;;;;;;;31.23;6.97;;;;;;;1.15;100.00;101291.59;1026526;28;20650;-76
2022/01/06 00:12:43;;;;;;;23.33;5.38;;;;;;;1.13;100.00;101290.09;1031975;28;20325;-79
2022/01/06 00:13:20;;;;;;;31.88;5.30;;;;;;;1.17;100.00;101301.94;1030675;28;20286;-80
2022/01/06 00:17:20;;;;;;;27.55;4.57;;;;;;;1.18;100.00;101288.69;1020956;29;20268;-80
2022/01/06 00:23:03;;;;;;;22.90;4.32;;;;;;;1.17;100.00;101296.72;1024927;29;20261;-80
2022/01/06 00:23:43;;;;;;;17.73;2.95;;;;;;;1.26;100.00;101306.31;1031612;28;20563;-80
2022/01/06 00:24:15;;;;;;;24.70;4.07;;;;;;;1.31;100.00;101308.50;1027893;28;20063;-80
2022/01/06 00:24:46;;;;;;;25.10;4.25;;;;;;;1.32;100.00;101305.75;1032919;28;20281;-79
2022/01/06 00:25:18;;;;;;;26.23;3.95;;;;;;;1.30;100.00;101297.19;1033116;28;20286;-80
2022/01/06 00:25:51;;;;;;;31.23;4.70;;;;;;;1.28;100.00;101301.75;1030520;28;20254;-80
2022/01/06 00:26:22;;;;;;;19.65;4.85;;;;;;;1.28;100.00;101299.13;1031428;28;20278;-76
2022/01/06 00:26:54;;;;;;;27.13;4.38;;;;;;;1.27;100.00;101300.09;1026916;28;20282;-76
2022/01/06 00:27:25;;;;;;;40.88;5.43;;;;;;;1.28;100.00;101300.94;1022927;29;20654;-77
2022/01/06 00:27:57;;;;;;;24.20;5.22;;;;;;;1.26;100.00;101301.06;1022594;29;20369;-76
2022/01/06 00:28:29;;;;;;;26.38;4.45;;;;;;;1.28;100.00;101299.13;1019880;29;20355;-76
2022/01/06 00:29:00;;;;;;;31.73;5.80;;;;;;;1.27;100.00;101307.97;1019239;29;20299;-76
2022/01/06 00:29:32;;;;;;;28.95;4.20;;;;;;;1.29;100.00;101306.03;1022890;29;20309;-77
2022/01/06 00:30:04;;;;;;;24.90;3.90;;;;;;;1.29;99.82;101311.28;1022993;29;20296;-76
2022/01/06 00:30:36;;;;;;;26.65;5.25;;;;;;;1.29;99.90;101306.03;1018970;28;20776;-76
2022/01/06 00:31:07;;;;;;;22.70;3.70;;;;;;;1.25;100.00;101304.69;1018898;29;20354;-76
2022/01/06 00:31:39;;;;;;;25.02;3.92;;;;;;;1.31;100.00;101308.50;1019331;29;20287;-76
2022/01/06 00:32:10;;;;;;;23.15;4.78;;;;;;;1.23;99.87;101306.63;1015117;29;20442;-76
2022/01/06 00:32:42;;;;;;;26.80;4.57;;;;;;;1.23;100.00;101309.25;1017405;29;20300;-76
2022/01/06 00:33:14;;;;;;;29.38;4.68;;;;;;;1.19;100.00;101306.09;1023025;29;20325;-76
2022/01/06 00:33:46;;;;;;;24.00;5.45;;;;;;;1.21;100.00;101303.31;1018246;29;20280;-76
2022/01/06 00:34:17;;;;;;;21.73;4.43;;;;;;;1.19;100.00;101303.47;1025991;28;20658;-76
2022/01/06 00:34:49;;;;;;;30.27;6.13;;;;;;;1.19;100.00;101303.47;1027508;28;20832;-76
2022/01/06 00:35:20;;;;;;;21.13;4.78;;;;;;;1.20;99.99;101314.78;1022851;29;20767;-75
2022/01/06 00:35:52;;;;;;;29.63;4.35;;;;;;;1.20;100.00;101307.72;1022230;29;20287;-76
2022/01/06 00:36:24;;;;;;;25.88;4.10;;;;;;;1.20;99.97;101307.72;1019802;29;20287;-76
2022/01/06 00:36:55;;;;;;;21.70;3.67;;;;;;;1.24;100.00;101313.53;1019037;29;20280;-77
2022/01/06 00:37:27;;;;;;;19.88;3.50;;;;;;;1.26;100.00;101316.81;1025480;28;20286;-76
2022/01/06 00:37:59;;;;;;;29.13;4.80;;;;;;;1.23;100.00;101311.88;1027038;28;20286;-76
2022/01/06 00:38:30;;;;;;;26.02;4.65;;;;;;;1.24;99.95;101306.47;1027034;28;20278;-76
2022/01/06 00:39:02;;;;;;;28.60;4.28;;;;;;;1.25;100.00;101307.31;1030816;28;20281;-76
2022/01/06 00:39:33;;;;;;;29.60;4.75;;;;;;;1.21;99.95;101312.00;1026876;28;20280;-76
2022/01/06 00:40:06;;;;;;;20.17;5.00;;;;;;;1.23;99.59;101314.50;1022200;28;20280;-76
2022/01/06 00:40:38;;;;;;;24.00;4.85;;;;;;;1.23;99.82;101311.88;1026756;28;20282;-76
2022/01/06 00:41:10;;;;;;;22.40;4.40;;;;;;;1.22;100.00;101311.03;1027614;28;20283;-77
2022/01/06 00:41:41;;;;;;;26.50;4.70;;;;;;;1.22;99.86;101313.66;1029973;28;20277;-76
2022/01/06 00:42:13;;;;;;;30.95;4.30;;;;;;;1.22;100.00;101311.03;1022614;29;20545;-76
2022/01/06 00:42:45;;;;;;;25.67;4.70;;;;;;;1.24;100.00;101316.16;1023880;28;20675;-76
2022/01/06 00:43:16;;;;;;;22.95;4.82;;;;;;;1.23;100.00;101311.88;1018272;29;20284;-76
2022/01/06 00:43:48;;;;;;;23.67;4.90;;;;;;;1.28;100.00;101314.06;1022475;29;20283;-77
2022/01/06 00:44:19;;;;;;;34.75;5.85;;;;;;;1.28;100.00;101314.06;1019158;29;20296;-76
2022/01/06 00:44:51;;;;;;;32.40;5.38;;;;;;;1.29;100.00;101316.53;1015304;29;20292;-77
2022/01/06 00:45:22;;;;;;;24.80;4.50;;;;;;;1.33;100.00;101315.28;1012301;29;20735;-76
2022/01/06 00:45:54;;;;;;;23.00;4.90;;;;;;;1.29;100.00;101313.91;1011266;29;20355;-76
2022/01/06 00:46:26;;;;;;;28.98;6.53;;;;;;;1.28;99.56;101309.63;1007129;29;20384;-76
2022/01/06 00:46:57;;;;;;;29.45;4.88;;;;;;;1.24;99.83;101319.59;1010020;29;20285;-76
2022/01/06 00:47:29;;;;;;;23.90;4.82;;;;;;;1.23;100.00;101317.13;1019092;29;20284;-76
2022/01/06 00:48:00;;;;;;;18.67;3.85;;;;;;;1.21;100.00;101309.38;1017130;28;20398;-76
2022/01/06 00:48:32;;;;;;;22.45;4.20;;;;;;;1.25;100.00;101317.78;1026149;28;20304;-76
2022/01/06 00:49:03;;;;;;;29.52;6.15;;;;;;;1.25;99.91;101320.41;1031779;28;20270;-81
2022/01/06 00:49:35;;;;;;;40.33;5.00;;;;;;;1.27;99.82;101323.72;1032531;28;20262;-80
2022/01/06 00:50:07;;;;;;;28.08;4.88;;;;;;;1.25;100.00;101323.03;1032715;28;20278;-80
2022/01/06 00:50:41;;;;;;;23.85;4.57;;;;;;;1.25;99.98;101325.66;1032707;28;20278;-80
2022/01/06 00:51:13;;;;;;;27.65;5.30;;;;;;;1.25;100.00;101323.03;1032926;28;20265;-80
2022/01/06 00:51:44;;;;;;;20.08;5.40;;;;;;;1.27;100.00;101323.72;1032589;28;20278;-80
2022/01/06 00:52:16;;;;;;;26.42;4.22;;;;;;;1.27;100.00;101321.09;1032950;28;20262;-80
2022/01/06 00:52:48;;;;;;;27.45;5.22;;;;;;;1.28;100.00;101322.75;1032810;28;20270;-79
2022/01/06 00:53:20;;;;;;;20.50;4.55;;;;;;;1.29;100.00;101327.03;1036974;28;20257;-80
2022/01/06 00:53:52;;;;;;;25.48;5.10;;;;;;;1.30;99.62;101320.81;1028754;28;20274;-79
2022/01/06 00:54:23;;;;;;;29.98;5.32;;;;;;;1.37;99.50;101324.53;1016670;29;20375;-76
2022/01/06 00:54:55;;;;;;;25.00;5.20;;;;;;;1.39;100.00;101319.13;1018143;29;20287;-76
2022/01/06 00:55:26;;;;;;;31.50;5.35;;;;;;;1.39;99.50;101317.34;1015667;29;20805;-76
2022/01/06 00:55:58;;;;;;;26.30;5.13;;;;;;;1.39;99.74;101319.13;1021116;28;20333;-76
2022/01/06 00:56:29;;;;;;;23.88;4.78;;;;;;;1.41;99.72;101319.81;1022538;29;20289;-76
2022/01/06 00:57:01;;;;;;;19.77;5.03;;;;;;;1.43;100.00;101321.31;1019314;29;20283;-76
2022/01/06 00:57:32;;;;;;;26.75;5.38;;;;;;;1.42;99.45;101322.28;1014862;29;20294;-76
2022/01/06 00:58:04;;;;;;;25.88;5.45;;;;;;;1.49;99.33;101322.53;1011338;29;20293;-77
2022/01/06 00:58:36;;;;;;;23.05;4.75;;;;;;;1.45;99.79;101321.19;1011393;29;20788;-76
2022/01/06 00:59:07;;;;;;;26.45;5.32;;;;;;;1.43;99.70;101317.88;1018854;29;20760;-76
2022/01/06 00:59:39;;;;;;;28.80;4.78;;;;;;;1.41;99.94;101315.41;1018089;29;20299;-76
2022/01/06 01:00:11;;;;;;;32.67;5.38;;;;;;;1.42;99.16;101317.03;1022922;29;20285;-77
2022/01/06 01:00:43;;;;;;;34.42;5.40;;;;;;;1.42;99.57;101313.59;1026762;28;20353;-76
2022/01/06 01:01:15;;;;;;;20.80;4.72;;;;;;;1.40;99.74;101313.75;1020017;28;20686;-76
2022/01/06 01:01:46;;;;;;;17.45;4.30;;;;;;;1.42;99.63;101326.72;1021145;29;20279;-80
2022/01/06 01:02:18;;;;;;;26.20;4.80;;;;;;;1.44;98.97;101320.34;1028481;29;20354;-80
2022/01/06 01:02:50;;;;;;;28.30;5.30;;;;;;;1.40;98.78;101316.38;1029123;28;20278;-79
2022/01/06 01:03:22;;;;;;;27.60;5.00;;;;;;;1.37;98.81;101316.66;1033767;28;20394;-79
2022/01/06 01:03:54;;;;;;;32.95;5.47;;;;;;;1.37;98.91;101319.28;1035990;28;20364;-80
2022/01/06 01:04:25;;;;;;;18.63;5.28;;;;;;;1.33;99.27;101317.06;1031641;28;20301;-76
2022/01/06 01:04:57;;;;;;;22.95;4.22;;;;;;;1.31;99.25;101319.84;1027135;28;20294;-77
2022/01/06 01:05:28;;;;;;;21.60;4.30;;;;;;;1.28;99.12;101322.75;1023377;28;20279;-77
2022/01/06 01:06:01;;;;;;;25.55;4.40;;;;;;;1.28;99.07;101319.31;1022556;29;20301;-76
2022/01/06 01:06:33;;;;;;;20.95;4.32;;;;;;;1.20;98.96;101317.41;1019138;29;20821;-76
2022/01/06 01:07:04;;;;;;;22.70;4.63;;;;;;;1.18;99.39;101321.97;1019446;29;20309;-76
2022/01/06 01:07:36;;;;;;;15.27;3.53;;;;;;;1.14;98.87;101320.59;1023133;28;20314;-77
2022/01/06 01:08:08;;;;;;;20.85;4.68;;;;;;;1.12;99.19;101325.16;1027239;28;20288;-76
2022/01/06 01:08:40;;;;;;;19.48;4.18;;;;;;;1.11;99.27;101310.41;1027006;28;20329;-76
2022/01/06 01:09:11;;;;;;;24.33;4.32;;;;;;;1.12;99.09;101330.41;1018845;29;20291;-76
2022/01/06 01:09:43;;;;;;;20.90;4.15;;;;;;;1.06;99.31;101326.53;1019695;29;20342;-77
2022/01/06 01:10:14;;;;;;;20.10;4.20;;;;;;;1.03;99.44;101323.38;1021493;29;20290;-76
2022/01/06 01:10:47;;;;;;;23.55;5.72;;;;;;;1.02;99.69;101326.97;1021629;28;20279;-77
2022/01/06 01:11:19;;;;;;;21.80;5.13;;;;;;;1.01;99.67;101327.94;1022954;29;20309;-76
2022/01/06 01:11:50;;;;;;;20.83;4.22;;;;;;;1.02;99.94;101324.34;1019022;28;20268;-77
2022/01/06 01:12:25;;;;;;;20.13;4.07;;;;;;;1.02;99.94;101329.59;1021304;29;20318;-76
2022/01/06 01:12:56;;;;;;;19.70;3.90;;;;;;;1.02;99.62;101325.19;1018609;29;20486;-76
2022/01/06 01:13:29;;;;;;;21.92;4.90;;;;;;;1.00;99.70;101331.53;1022936;28;20286;-76
2022/01/06 01:14:17;;;;;;;31.02;5.30;;;;;;;1.03;99.88;101331.25;1027563;28;20623;-76
2022/01/06 01:15:04;;;;;;;35.88;5.53;;;;;;;1.01;99.95;101327.94;1025379;28;20274;-76
2022/01/06 01:15:43;;;;;;;18.77;3.60;;;;;;;1.01;99.83;101330.56;1025963;28;20282;-76
2022/01/06 01:16:24;;;;;;;21.52;3.38;;;;;;;1.10;100.00;101332.34;1025060;28;20354;-76
2022/01/06 01:16:58;;;;;;;28.80;4.68;;;;;;;1.14;99.55;101325.84;1029559;28;20313;-76
2022/01/06 01:17:30;;;;;;;19.27;4.05;;;;;;;1.13;99.77;101326.81;1024634;28;20309;-76
2022/01/06 01:18:08;;;;;;;19.70;4.22;;;;;;;1.14;100.00;101333.72;1026633;28;20284;-77
2022/01/06 01:18:45;;;;;;;17.33;4.15;;;;;;;1.12;99.38;101330.41;1026581;28;20282;-76
2022/01/06 01:19:16;;;;;;;23.88;6.03;;;;;;;1.04;99.79;101333.72;1026492;28;20304;-77
2022/01/06 01:19:48;;;;;;;20.17;3.13;;;;;;;1.05;99.38;101334.56;1026959;28;20296;-77
2022/01/06 01:20:21;;;;;;;26.13;4.78;;;;;;;1.08;99.33;101329.84;1024084;28;20312;-76
2022/01/06 01:20:53;;;;;;;13.55;3.22;;;;;;;1.04;99.52;101323.25;1019866;29;20314;-77
2022/01/06 01:21:26;;;;;;;18.77;3.55;;;;;;;1.08;99.67;101334.28;1021145;29;20376;-76
2022/01/06 01:21:58;;;;;;;17.98;3.70;;;;;;;1.06;99.38;101330.97;1018867;29;20315;-76
2022/01/06 01:22:30;;;;;;;21.50;5.47;;;;;;;1.05;99.41;101329.31;1019381;29;20643;-76
2022/01/06 01:23:01;;;;;;;27.15;4.75;;;;;;;1.05;99.28;101334.56;1016885;29;20288;-76
2022/01/06 01:23:33;;;;;;;18.95;4.18;;;;;;;1.07;99.31;101320.31;1011319;29;20295;-76
2022/01/06 01:24:04;;;;;;;27.55;5.43;;;;;;;1.05;99.63;101329.31;1011209;29;20281;-76
2022/01/06 01:24:36;;;;;;;22.20;3.45;;;;;;;1.04;99.49;101338.16;1013858;29;20291;-76
2022/01/06 01:25:08;;;;;;;19.55;5.03;;;;;;;1.09;99.71;101330.69;1013588;29;20660;-76
2022/01/06 01:25:39;;;;;;;22.45;4.93;;;;;;;1.07;99.37;101332.63;1011334;29;20289;-76
2022/01/06 01:26:11;;;;;;;19.90;3.97;;;;;;;1.02;99.18;101334.84;1015317;29;20355;-76
2022/01/06 01:26:42;;;;;;;22.50;4.45;;;;;;;1.04;99.33;101332.91;1017573;29;20288;-77
2022/01/06 01:27:16;;;;;;;20.15;3.92;;;;;;;1.02;99.17;101337.47;1020322;28;20303;-77
2022/01/06 01:27:47;;;;;;;21.80;3.67;;;;;;;1.05;99.28;101334.56;1018909;29;20287;-77
2022/01/06 01:28:19;;;;;;;19.17;3.70;;;;;;;1.04;99.36;101335.53;1018088;29;20296;-77
2022/01/06 01:28:51;;;;;;;28.50;4.43;;;;;;;1.06;99.43;101330.97;1023306;28;20287;-77
2022/01/06 01:29:23;;;;;;;24.45;3.60;;;;;;;1.06;99.64;101337.03;1023718;28;20286;-77
2022/01/06 01:30:02;;;;;;;21.15;4.55;;;;;;;1.05;99.12;101339.81;1020804;29;20283;-77
2022/01/06 01:30:41;;;;;;;21.05;4.70;;;;;;;1.05;99.38;101345.06;1018904;29;20423;-76
2022/01/06 01:31:54;;;;;;;22.75;3.92;;;;;;;1.11;99.42;101349.75;1019887;29;20794;-76
2022/01/06 01:32:33;;;;;;;24.13;4.40;;;;;;;1.08;99.67;101339.50;1018924;29;20295;-76
2022/01/06 01:33:13;;;;;;;20.40;4.47;;;;;;;1.06;99.35;101346.69;1016371;29;20295;-76
2022/01/06 01:33:46;;;;;;;23.63;4.25;;;;;;;1.10;99.65;101342.84;1022829;29;20253;-79
2022/01/06 01:34:23;;;;;;;25.42;4.47;;;;;;;1.04;99.78;101346.03;1028410;28;20036;-79
2022/01/06 01:35:00;;;;;;;27.08;4.57;;;;;;;1.04;99.26;101351.28;1028934;28;20263;-80
2022/01/06 01:35:32;;;;;;;18.10;3.38;;;;;;;1.01;99.26;101341.06;1026111;29;20283;-79
2022/01/06 01:36:04;;;;;;;20.38;4.28;;;;;;;0.99;99.62;101345.63;1031420;28;20295;-81
2022/01/06 01:36:36;;;;;;;17.90;3.75;;;;;;;1.01;99.31;101348.94;1033064;28;20285;-80
2022/01/06 01:37:07;;;;;;;22.95;4.43;;;;;;;0.98;99.80;101350.03;1033373;28;20331;-79
2022/01/06 01:37:39;;;;;;;19.60;3.60;;;;;;;0.96;99.76;101351.16;1033702;28;20274;-80
2022/01/06 01:38:10;;;;;;;22.73;4.03;;;;;;;0.96;99.58;101346.75;1033386;28;20266;-80
2022/01/06 01:38:42;;;;;;;15.90;3.28;;;;;;;0.99;99.43;101350.88;1029064;28;20674;-76
2022/01/06 01:39:13;;;;;;;19.90;4.53;;;;;;;0.95;99.41;101349.50;1027683;28;20631;-76
2022/01/06 01:39:45;;;;;;;17.60;4.03;;;;;;;0.97;99.53;101358.06;1022221;29;20290;-76
2022/01/06 01:40:16;;;;;;;21.85;4.80;;;;;;;0.93;99.50;101360.13;1023866;28;20302;-76
2022/01/06 01:40:48;;;;;;;20.25;5.30;;;;;;;0.91;99.55;101355.03;1020037;29;20658;-76
2022/01/06 01:41:20;;;;;;;18.58;4.30;;;;;;;0.90;99.94;101353.38;1020079;29;20439;-76
2022/01/06 01:41:52;;;;;;;22.35;4.88;;;;;;;0.90;99.63;101356.00;1018845;29;20283;-76
2022/01/06 01:42:24;;;;;;;23.00;4.03;;;;;;;0.91;99.63;101357.66;1012648;29;20284;-76
2022/01/06 01:42:55;;;;;;;29.10;4.88;;;;;;;0.90;99.74;101358.63;1012589;29;20758;-76
2022/01/06 01:43:27;;;;;;;28.75;3.70;;;;;;;0.86;99.89;101365.13;1011637;29;20299;-76
2022/01/06 01:43:58;;;;;;;19.73;3.85;;;;;;;0.85;100.00;101363.47;1012496;29;20297;-76
2022/01/06 01:44:33;;;;;;;23.70;5.15;;;;;;;0.85;100.00;101360.84;1012920;29;20817;-76
2022/01/06 01:45:06;;;;;;;20.30;3.63;;;;;;;0.82;99.93;101360.28;1019824;29;20287;-76
2022/01/06 01:45:45;;;;;;;15.05;3.08;;;;;;;0.77;99.91;101363.31;1020440;29;20388;-76
2022/01/06 01:46:19;;;;;;;18.92;3.67;;;;;;;0.77;99.57;101376.44;1019367;29;20314;-76
2022/01/06 01:47:03;;;;;;;17.75;3.80;;;;;;;0.73;100.00;101366.38;1018499;29;20292;-77
2022/01/06 01:48:18;;;;;;;21.90;4.75;;;;;;;0.72;99.87;101373.41;1019512;29;20683;-76
2022/01/06 01:49:11;;;;;;;18.45;4.80;;;;;;;0.73;100.00;101376.84;1025829;28;20615;-76
2022/01/06 01:49:54;;;;;;;;;;;;;;;0.69;100.00;101378.94;1020762;29;20244;-77
2022/01/06 01:50:26;;;;;;;16.02;2.45;;;;;;;0.64;99.97;101378.53;1026136;28;20382;-76
2022/01/06 01:50:57;;;;;;;12.93;2.53;;;;;;;0.66;100.00;101379.22;1024482;28;20295;-76
2022/01/06 01:51:29;;;;;;;23.17;2.25;;;;;;;0.62;100.00;101377.84;1027223;28;20282;-76
2022/01/06 01:52:00;;;;;;;13.93;3.10;;;;;;;0.59;100.00;101375.50;1021009;29;20283;-76
2022/01/06 01:52:32;;;;;;;13.77;2.65;;;;;;;0.61;100.00;101378.81;1024164;28;20307;-76
2022/01/06 01:53:03;;;;;;;20.92;3.30;;;;;;;0.61;100.00;101389.28;1021792;29;20290;-76
2022/01/06 01:53:36;;;;;;;14.77;3.80;;;;;;;0.59;100.00;101378.13;1019411;28;20294;-76
2022/01/06 01:54:08;;;;;;;14.23;2.58;;;;;;;0.62;100.00;101385.69;1023716;28;20290;-76
2022/01/06 01:54:40;;;;;;;13.65;2.13;;;;;;;0.65;100.00;101377.56;1024111;28;20785;-76
2022/01/06 01:55:15;;;;;;;18.17;2.58;;;;;;;0.62;100.00;101383.06;1023344;29;20695;-76
2022/01/06 01:55:46;;;;;;;10.30;2.90;;;;;;;0.60;100.00;101383.22;1019280;29;20295;-75
2022/01/06 01:56:18;;;;;;;12.38;2.22;;;;;;;0.60;100.00;101382.38;1019703;29;20659;-76
2022/01/06 01:56:50;;;;;;;12.68;2.72;;;;;;;0.60;100.00;101392.88;1019294;29;20287;-76
2022/01/06 01:57:22;;;;;;;23.55;3.97;;;;;;;0.60;100.00;101387.63;1013086;29;20289;-76
2022/01/06 01:57:54;;;;;;;25.10;2.75;;;;;;;0.58;100.00;101384.31;1016092;29;20288;-76
2022/01/06 01:58:26;;;;;;;20.15;3.90;;;;;;;0.59;100.00;101385.97;1013478;29;20415;-76
2022/01/06 01:58:58;;;;;;;16.10;3.15;;;;;;;0.54;100.00;101383.75;1014001;29;20288;-76
2022/01/06 01:59:29;;;;;;;13.98;2.78;;;;;;;0.56;100.00;101391.50;1015087;29;20285;-76
2022/01/06 02:00:01;;;;;;;16.20;4.70;;;;;;;0.53;100.00;101396.97;1023798;28;20291;-76
2022/01/06 02:00:32;;;;;;;15.60;2.30;;;;;;;0.51;100.00;101391.06;1019798;29;20640;-77
2022/01/06 02:01:04;;;;;;;13.15;2.97;;;;;;;0.51;100.00;101388.44;1019921;29;20275;-77
2022/01/06 02:01:36;;;;;;;12.95;2.47;;;;;;;0.49;100.00;101388.56;1011691;29;20296;-75
2022/01/06 02:02:08;;;;;;;15.90;2.88;;;;;;;0.42;100.00;101384.03;1012180;29;20792;-76
2022/01/06 02:02:40;;;;;;;16.10;2.97;;;;;;;0.42;100.00;101390.09;1014113;29;20329;-76
2022/01/06 02:03:12;;;;;;;14.48;2.08;;;;;;;0.42;100.00;101384.03;1009456;29;20282;-77
2022/01/06 02:03:44;;;;;;;19.75;3.15;;;;;;;0.43;100.00;101399.59;1011689;29;20324;-77
2022/01/06 02:04:15;;;;;;;15.48;3.35;;;;;;;0.44;100.00;101395.19;1015854;29;20306;-76
2022/01/06 02:04:50;;;;;;;17.75;3.15;;;;;;;0.52;100.00;101392.72;1020118;29;20295;-77
2022/01/06 02:05:28;;;;;;;26.02;5.55;;;;;;;0.51;100.00;101393.69;1020435;29;20294;-76
2022/01/06 02:06:00;;;;;;;19.10;3.33;;;;;;;0.53;100.00;101391.75;1019606;29;20290;-76
2022/01/06 02:06:31;;;;;;;16.75;3.85;;;;;;;0.53;100.00;101400.44;1019974;29;20643;-76
2022/01/06 02:07:03;;;;;;;27.80;5.45;;;;;;;0.53;100.00;101402.22;1023755;29;20287;-77
2022/01/06 02:07:38;;;;;;;14.52;3.05;;;;;;;0.52;100.00;101403.19;1020687;29;20648;-77
2022/01/06 02:08:10;;;;;;;25.13;5.32;;;;;;;0.52;100.00;101403.19;1020157;29;20703;-77
2022/01/06 02:08:41;;;;;;;27.05;4.53;;;;;;;0.49;100.00;101406.91;1019774;29;20805;-76
2022/01/06 02:09:13;;;;;;;19.65;4.18;;;;;;;0.50;100.00;101405.13;1014504;29;20668;-76
2022/01/06 02:09:44;;;;;;;18.20;3.20;;;;;;;0.45;100.00;101409.94;1017684;29;20294;-76
2022/01/06 02:10:18;;;;;;;25.38;4.55;;;;;;;0.46;100.00;101411.59;1019963;29;20288;-77
2022/01/06 02:10:50;;;;;;;25.60;3.70;;;;;;;0.41;100.00;101403.34;1014946;29;20760;-76
2022/01/06 02:11:22;;;;;;;15.45;3.75;;;;;;;0.38;100.00;101414.09;1015563;29;20284;-78
2022/01/06 02:11:53;;;;;;;20.02;3.65;;;;;;;0.35;100.00;101414.38;1017298;29;20594;-77
2022/01/06 02:12:31;;;;;;;23.23;3.67;;;;;;;0.30;100.00;101413.00;1014210;29;20899;-76
2022/01/06 02:13:03;;;;;;;23.17;3.25;;;;;;;0.24;100.00;101412.66;1016461;29;20279;-76
2022/01/06 02:13:52;;;;;;;19.95;3.40;;;;;;;0.27;100.00;101421.13;1020227;29;20295;-76
2022/01/06 02:14:27;;;;;;;14.70;3.22;;;;;;;0.30;100.00;101417.41;1021756;29;20283;-76
2022/01/06 02:14:59;;;;;;;15.52;2.53;;;;;;;0.32;100.00;101422.50;1019088;29;20298;-78
2022/01/06 02:15:30;;;;;;;22.17;3.58;;;;;;;0.36;100.00;101422.09;1029524;28;20816;-80
2022/01/06 02:16:02;;;;;;;18.23;3.28;;;;;;;0.39;100.00;101416.56;1029587;28;20279;-81
2022/01/06 02:16:34;;;;;;;35.03;5.47;;;;;;;0.40;100.00;101427.88;1028748;29;20338;-80
2022/01/06 02:17:07;;;;;;;22.83;3.65;;;;;;;0.42;100.00;101416.31;1022609;29;20287;-79
2022/01/06 02:17:38;;;;;;;17.17;3.60;;;;;;;0.48;100.00;101420.16;1024144;29;20302;-80
2022/01/06 02:18:10;;;;;;;18.67;4.55;;;;;;;0.48;100.00;101422.78;1022231;29;20284;-81
2022/01/06 02:18:41;;;;;;;31.05;4.35;;;;;;;0.49;100.00;101419.19;1025270;29;20263;-80
2022/01/06 02:19:13;;;;;;;20.13;4.07;;;;;;;0.51;100.00;101419.88;1024871;28;20356;-79
2022/01/06 02:20:01;;;;;;;20.50;4.55;;;;;;;0.54;100.00;101430.09;1021004;29;20294;-79
2022/01/06 02:20:32;;;;;;;20.52;3.90;;;;;;;0.46;100.00;101419.47;1022098;29;20291;-80
2022/01/06 02:21:09;;;;;;;31.58;5.40;;;;;;;0.41;100.00;101430.38;1029211;29;20253;-80
2022/01/06 02:21:41;;;;;;;24.50;3.65;;;;;;;0.48;100.00;101433.25;1032398;28;20272;-80
2022/01/06 02:22:13;;;;;;;20.15;4.28;;;;;;;0.47;100.00;101437.69;1029216;29;20318;-80
2022/01/06 02:22:45;;;;;;;24.25;4.22;;;;;;;0.41;100.00;101434.78;1022501;29;20291;-80
2022/01/06 02:23:18;;;;;;;18.92;3.60;;;;;;;0.39;100.00;101426.22;1015119;29;20276;-77
2022/01/06 02:23:49;;;;;;;21.15;4.05;;;;;;;0.41;100.00;101434.78;1016853;29;20375;-76
2022/01/06 02:24:21;;;;;;;19.88;3.55;;;;;;;0.34;100.00;101433.66;1013617;29;20289;-76
2022/01/06 02:24:53;;;;;;;15.15;3.72;;;;;;;0.30;100.00;101428.72;1013683;29;20652;-77
2022/01/06 02:25:30;;;;;;;19.50;3.90;;;;;;;0.34;100.00;101428.44;1015824;29;20304;-76
2022/01/06 02:26:02;;;;;;;20.90;4.53;;;;;;;0.30;100.00;101428.72;1018501;29;20407;-76
2022/01/06 02:26:33;;;;;;;20.67;5.05;;;;;;;0.31;100.00;101426.91;1016885;29;20663;-77
2022/01/06 02:27:05;;;;;;;32.67;5.22;;;;;;;0.33;100.00;101432.00;1020342;29;20280;-76
2022/01/06 02:27:36;;;;;;;21.95;4.47;;;;;;;0.30;100.00;101426.09;1019157;29;20852;-76
2022/01/06 02:28:08;;;;;;;22.80;3.13;;;;;;;0.30;100.00;101433.94;1016305;29;20667;-77
2022/01/06 02:28:40;;;;;;;26.65;4.85;;;;;;;0.33;100.00;101437.25;1013172;29;20273;-76
2022/01/06 02:29:11;;;;;;;22.38;4.35;;;;;;;0.33;100.00;101432.84;1016042;29;20286;-77
2022/01/06 02:29:43;;;;;;;28.67;4.60;;;;;;;0.27;100.00;101428.97;1015571;29;20304;-76
2022/01/06 02:30:15;;;;;;;28.50;5.68;;;;;;;0.30;100.00;101430.50;1016411;29;20673;-77
2022/01/06 02:30:50;;;;;;;19.08;4.40;;;;;;;0.36;100.00;101431.75;1019187;29;20643;-76
2022/01/06 02:31:21;;;;;;;19.85;4.55;;;;;;;0.32;100.00;101433.81;1018543;29;20324;-76
2022/01/06 02:31:53;;;;;;;20.65;4.45;;;;;;;0.35;100.00;101435.31;1016896;29;20375;-76
2022/01/06 02:32:25;;;;;;;26.45;4.72;;;;;;;0.38;100.00;101437.69;1020146;29;20632;-77
2022/01/06 02:32:56;;;;;;;22.42;5.13;;;;;;;0.37;100.00;101438.63;1024318;28;20285;-76
2022/01/06 02:33:28;;;;;;;24.67;5.20;;;;;;;0.37;100.00;101433.41;1024003;28;20311;-76
2022/01/06 02:33:59;;;;;;;20.23;4.53;;;;;;;0.34;100.00;101439.75;1020919;29;20284;-76
2022/01/06 02:34:31;;;;;;;26.30;5.40;;;;;;;0.37;100.00;101433.41;1019373;29;20298;-76
2022/01/06 02:35:05;;;;;;;21.92;5.50;;;;;;;0.35;100.00;101440.56;1019802;29;20300;-76
2022/01/06 02:35:36;;;;;;;28.05;4.57;;;;;;;0.32;100.00;101438.22;1012932;29;20296;-76
2022/01/06 02:36:08;;;;;;;23.20;6.10;;;;;;;0.30;100.00;101431.31;1012083;29;20307;-77
2022/01/06 02:36:39;;;;;;;30.25;5.57;;;;;;;0.28;100.00;101435.88;1016591;29;20284;-76
2022/01/06 02:37:13;;;;;;;24.77;4.75;;;;;;;0.28;100.00;101438.50;1020313;28;20807;-76
2022/01/06 02:37:45;;;;;;;24.95;5.03;;;;;;;0.29;100.00;101437.53;1023527;28;20683;-76
2022/01/06 02:38:17;;;;;;;30.40;4.60;;;;;;;0.31;100.00;101440.00;1022753;29;20287;-76
2022/01/06 02:38:49;;;;;;;24.45;5.53;;;;;;;0.23;100.00;101440.66;1015150;29;20764;-76
2022/01/06 02:39:20;;;;;;;21.58;4.55;;;;;;;0.21;100.00;101436.53;1016062;29;20295;-76
2022/01/06 02:39:52;;;;;;;21.50;4.53;;;;;;;0.20;100.00;101433.06;1015447;29;20288;-76
2022/01/06 02:40:25;;;;;;;22.13;4.03;;;;;;;0.22;100.00;101432.94;1016287;29;20284;-76
2022/01/06 02:40:56;;;;;;;26.63;6.18;;;;;;;0.20;100.00;101437.47;1015216;29;20288;-77